Time;durP1;ratioP1;P1;durP2;ratioP2;P2;SDS_P1;SDS_P2;PMS_P1;PMS_P2;Temp;Humidity;BMP_temperature;BMP_pressure;BME280_temperature;BME280_humidity;BME280_pressure;Samples;Min_cycle;Max_cycle;Signal;HPM_P1;HPM_P2
2023/08/29 00:01:36;;;;;;;2.95;1.75;;;;;;;;;;4962565;28;20704;-72
2023/08/29 00:04:02;;;;;;;2.67;1.40;;;;;;;;;;4962837;28;20242;-71
2023/08/29 00:06:29;;;;;;;2.50;1.58;;;;;;;;;;4963161;28;20196;-71
2023/08/29 00:08:55;;;;;;;4.00;1.35;;;;;;;;;;4962944;28;20203;-71
2023/08/29 00:11:21;;;;;;;1.40;1.40;;;;;;;;;;4960180;28;20227;-72
2023/08/29 00:13:49;;;;;;;1.52;1.40;;;;;;;;;;4960970;28;20275;-71
2023/08/29 00:16:16;;;;;;;1.75;1.65;;;;;;;;;;4963369;28;20701;-71
2023/08/29 00:18:42;;;;;;;1.50;1.50;;;;;;;;;;4965166;28;20200;-72
2023/08/29 00:21:08;;;;;;;1.40;1.35;;;;;;;;;;4964814;28;20228;-72
2023/08/29 00:23:35;;;;;;;1.27;1.27;;;;;;;;;;4962115;28;20200;-72
2023/08/29 00:26:02;;;;;;;2.15;1.50;;;;;;;;;;4961893;28;20295;-73
2023/08/29 00:28:28;;;;;;;1.50;1.42;;;;;;;;;;4964934;28;20199;-72
2023/08/29 00:30:56;;;;;;;2.08;1.95;;;;;;;;;;4964776;28;20223;-72
2023/08/29 00:33:22;;;;;;;1.77;1.60;;;;;;;;;;4962739;28;20303;-72
2023/08/29 00:35:48;;;;;;;2.85;1.42;;;;;;;;;;4962127;28;20207;-72
2023/08/29 00:38:15;;;;;;;3.35;1.80;;;;;;;;;;4962979;28;20259;-72
2023/08/29 00:40:42;;;;;;;1.48;1.48;;;;;;;;;;4964922;28;20214;-73
2023/08/29 00:43:08;;;;;;;1.52;1.42;;;;;;;;;;4964427;28;20196;-72
2023/08/29 00:45:37;;;;;;;1.80;1.70;;;;;;;;;;4961696;28;20312;-72
2023/08/29 00:48:05;;;;;;;1.65;1.52;;;;;;;;;;4961452;28;20216;-72
2023/08/29 00:50:32;;;;;;;1.70;1.60;;;;;;;;;;4964666;28;20196;-72
2023/08/29 00:52:59;;;;;;;1.65;1.30;;;;;;;;;;4964512;28;20728;-72
2023/08/29 00:55:26;;;;;;;1.85;1.48;;;;;;;;;;4991091;23;20308;-69
2023/08/29 00:57:56;;;;;;;1.60;1.60;;;;;;;;;;5003970;28;20198;-70
2023/08/29 01:00:22;;;;;;;1.88;1.35;;;;;;;;;;5001534;28;20206;-70
2023/08/29 01:02:49;;;;;;;1.70;1.40;;;;;;;;;;5000250;28;20280;-70
2023/08/29 01:05:16;;;;;;;2.20;1.30;;;;;;;;;;5001108;28;20211;-71
2023/08/29 01:07:43;;;;;;;1.70;1.60;;;;;;;;;;5003751;28;20201;-70
2023/08/29 01:10:09;;;;;;;3.17;1.70;;;;;;;;;;5003398;28;20717;-70
2023/08/29 01:12:42;;;;;;;1.60;1.60;;;;;;;;;;5003231;28;20223;-70
2023/08/29 01:15:10;;;;;;;1.65;1.55;;;;;;;;;;5003764;28;20202;-70
2023/08/29 01:17:40;;;;;;;1.77;1.60;;;;;;;;;;5000213;28;20237;-70
2023/08/29 01:20:07;;;;;;;1.60;1.60;;;;;;;;;;5000248;28;20210;-70
2023/08/29 01:22:38;;;;;;;2.42;1.73;;;;;;;;;;5002848;28;20214;-70
2023/08/29 01:25:10;;;;;;;2.10;1.63;;;;;;;;;;5003504;28;20203;-71
2023/08/29 01:27:38;;;;;;;2.03;1.83;;;;;;;;;;5003454;28;20206;-70
2023/08/29 01:30:06;;;;;;;2.45;1.60;;;;;;;;;;5003426;28;20571;-70
2023/08/29 01:32:32;;;;;;;2.03;1.55;;;;;;;;;;5000097;28;20235;-70
2023/08/29 01:34:59;;;;;;;1.80;1.70;;;;;;;;;;5000116;28;20214;-70
2023/08/29 01:37:25;;;;;;;1.42;1.42;;;;;;;;;;5001674;28;20694;-70
2023/08/29 01:39:52;;;;;;;1.55;1.42;;;;;;;;;;5003125;28;20221;-70
2023/08/29 01:42:18;;;;;;;1.60;1.60;;;;;;;;;;5001934;28;20218;-70
2023/08/29 01:44:45;;;;;;;3.15;1.75;;;;;;;;;;5000521;28;20199;-70
2023/08/29 01:47:12;;;;;;;1.60;1.50;;;;;;;;;;5000465;28;20206;-70
2023/08/29 01:49:39;;;;;;;1.75;1.50;;;;;;;;;;5002954;28;20690;-70
2023/08/29 01:52:06;;;;;;;1.38;1.38;;;;;;;;;;5002856;28;20233;-70
2023/08/29 01:54:32;;;;;;;1.85;1.48;;;;;;;;;;5000418;28;20667;-70
2023/08/29 01:56:59;;;;;;;2.05;1.77;;;;;;;;;;4999701;28;20215;-70
2023/08/29 01:59:26;;;;;;;1.50;1.40;;;;;;;;;;5001458;28;20215;-70
2023/08/29 02:01:54;;;;;;;1.60;1.60;;;;;;;;;;5002900;28;20293;-70
2023/08/29 02:04:20;;;;;;;1.95;1.60;;;;;;;;;;5002290;28;20202;-70
2023/08/29 02:06:46;;;;;;;1.98;1.95;;;;;;;;;;5001443;28;20199;-70
2023/08/29 02:09:12;;;;;;;2.67;1.60;;;;;;;;;;5003322;28;20203;-70
2023/08/29 02:11:39;;;;;;;1.60;1.60;;;;;;;;;;5006230;28;20595;-70
2023/08/29 02:14:05;;;;;;;1.92;1.40;;;;;;;;;;5006719;28;20222;-70
2023/08/29 02:16:31;;;;;;;1.65;1.60;;;;;;;;;;4998479;28;20207;-69
2023/08/29 02:18:59;;;;;;;2.03;1.80;;;;;;;;;;5009133;28;20230;-70
2023/08/29 02:21:26;;;;;;;1.92;1.83;;;;;;;;;;5003892;28;20225;-70
2023/08/29 02:23:52;;;;;;;2.05;1.70;;;;;;;;;;5006317;28;20198;-70
2023/08/29 02:26:19;;;;;;;3.33;1.60;;;;;;;;;;5006029;28;20203;-70
2023/08/29 02:28:45;;;;;;;1.98;1.98;;;;;;;;;;5003014;28;20199;-70
2023/08/29 02:31:13;;;;;;;1.83;1.77;;;;;;;;;;5002621;28;20231;-71
2023/08/29 02:33:39;;;;;;;1.98;1.88;;;;;;;;;;5002830;28;20225;-70
2023/08/29 02:36:07;;;;;;;1.63;1.50;;;;;;;;;;5002710;28;20675;-70
2023/08/29 02:38:33;;;;;;;1.70;1.60;;;;;;;;;;5004633;28;20697;-70
2023/08/29 02:41:00;;;;;;;1.95;1.50;;;;;;;;;;5006122;28;20237;-70
2023/08/29 02:43:27;;;;;;;1.55;1.55;;;;;;;;;;5004924;28;20202;-70
2023/08/29 02:45:53;;;;;;;1.70;1.70;;;;;;;;;;5002776;28;20291;-70
2023/08/29 02:48:20;;;;;;;2.28;2.08;;;;;;;;;;5002754;28;20206;-70
2023/08/29 02:50:48;;;;;;;1.63;1.52;;;;;;;;;;5005709;28;20205;-70
2023/08/29 02:53:15;;;;;;;1.98;1.75;;;;;;;;;;5005983;28;20214;-70
2023/08/29 02:55:42;;;;;;;1.73;1.50;;;;;;;;;;5002515;28;20567;-70
2023/08/29 02:58:08;;;;;;;1.90;1.80;;;;;;;;;;5002467;28;20203;-70
2023/08/29 03:00:35;;;;;;;2.08;1.98;;;;;;;;;;5004078;28;20203;-70
2023/08/29 03:03:03;;;;;;;2.05;1.95;;;;;;;;;;5005451;28;20279;-70
2023/08/29 03:05:29;;;;;;;1.92;1.73;;;;;;;;;;4997373;28;20265;-70
2023/08/29 03:07:57;;;;;;;5.05;1.85;;;;;;;;;;5005689;28;20198;-71
2023/08/29 03:10:24;;;;;;;2.60;1.95;;;;;;;;;;5005271;28;20202;-71
2023/08/29 03:12:51;;;;;;;5.15;2.13;;;;;;;;;;5001707;28;20243;-71
2023/08/29 03:15:17;;;;;;;2.00;1.90;;;;;;;;;;5002283;28;20203;-71
2023/08/29 03:17:44;;;;;;;3.30;2.17;;;;;;;;;;5004793;28;20229;-70
2023/08/29 03:20:11;;;;;;;1.90;1.77;;;;;;;;;;5007086;28;20214;-70
2023/08/29 03:22:37;;;;;;;3.15;2.10;;;;;;;;;;5003638;28;20219;-70
2023/08/29 03:25:03;;;;;;;3.80;2.13;;;;;;;;;;5005337;28;20209;-71
2023/08/29 03:27:31;;;;;;;2.25;2.10;;;;;;;;;;5004349;28;20206;-71
2023/08/29 03:29:58;;;;;;;2.55;2.00;;;;;;;;;;5001969;28;20208;-70
2023/08/29 03:32:25;;;;;;;2.17;2.05;;;;;;;;;;5001314;28;20223;-70
2023/08/29 03:34:52;;;;;;;2.00;1.75;;;;;;;;;;5001554;28;20675;-70
2023/08/29 03:37:18;;;;;;;4.78;2.05;;;;;;;;;;5001818;28;20203;-70
2023/08/29 03:39:45;;;;;;;1.90;1.73;;;;;;;;;;5004546;28;20198;-70
2023/08/29 03:42:11;;;;;;;1.83;1.83;;;;;;;;;;5004796;28;20276;-70
2023/08/29 03:44:38;;;;;;;4.95;2.03;;;;;;;;;;5003166;28;20199;-71
2023/08/29 03:47:05;;;;;;;1.92;1.92;;;;;;;;;;5001384;28;20555;-71
2023/08/29 03:49:31;;;;;;;1.90;1.80;;;;;;;;;;5002548;28;20207;-71
2023/08/29 03:51:58;;;;;;;2.20;2.10;;;;;;;;;;5004352;28;20223;-71
2023/08/29 03:54:24;;;;;;;2.47;2.28;;;;;;;;;;5004886;28;20225;-70
2023/08/29 03:56:50;;;;;;;2.55;2.35;;;;;;;;;;5004999;28;20211;-70
2023/08/29 03:59:16;;;;;;;2.63;2.10;;;;;;;;;;5004977;28;20237;-70
2023/08/29 04:01:44;;;;;;;3.15;2.22;;;;;;;;;;5001729;28;20234;-70
2023/08/29 04:04:10;;;;;;;2.03;2.03;;;;;;;;;;5001241;28;20661;-70
2023/08/29 04:06:37;;;;;;;3.40;1.98;;;;;;;;;;5002704;28;20225;-70
2023/08/29 04:09:03;;;;;;;3.28;2.40;;;;;;;;;;5007242;28;20206;-70
2023/08/29 04:11:29;;;;;;;5.15;2.40;;;;;;;;;;5003569;28;20234;-70
2023/08/29 04:13:56;;;;;;;2.10;2.00;;;;;;;;;;5001046;28;20219;-70
2023/08/29 04:16:22;;;;;;;2.40;2.30;;;;;;;;;;5000856;28;20207;-65
2023/08/29 04:18:49;;;;;;;2.50;2.17;;;;;;;;;;5003804;28;20213;-65
2023/08/29 04:21:16;;;;;;;2.20;2.10;;;;;;;;;;5003899;28;20738;-65
2023/08/29 04:23:42;;;;;;;3.65;2.85;;;;;;;;;;5002400;28;20556;-66
2023/08/29 04:26:08;;;;;;;2.53;2.42;;;;;;;;;;5000879;28;20574;-65
2023/08/29 04:28:35;;;;;;;3.42;2.35;;;;;;;;;;5001089;28;20211;-65
2023/08/29 04:31:07;;;;;;;2.45;2.10;;;;;;;;;;5004104;28;20218;-65
2023/08/29 04:33:34;;;;;;;2.60;2.40;;;;;;;;;;5003409;28;20218;-65
2023/08/29 04:36:01;;;;;;;2.47;2.15;;;;;;;;;;5001189;28;20199;-65
2023/08/29 04:38:28;;;;;;;4.47;2.50;;;;;;;;;;5000701;28;20667;-65
2023/08/29 04:40:55;;;;;;;2.50;2.40;;;;;;;;;;5008324;28;20229;-65
2023/08/29 04:43:21;;;;;;;2.42;2.20;;;;;;;;;;5000990;28;20195;-65
2023/08/29 04:45:47;;;;;;;5.22;2.50;;;;;;;;;;5003304;28;20214;-65
2023/08/29 04:48:14;;;;;;;2.90;2.70;;;;;;;;;;5004058;28;20222;-65
2023/08/29 04:50:40;;;;;;;2.78;2.63;;;;;;;;;;5002528;28;20233;-65
2023/08/29 04:53:08;;;;;;;2.80;2.70;;;;;;;;;;5000160;28;20778;-64
2023/08/29 04:55:34;;;;;;;2.92;2.78;;;;;;;;;;5000720;28;20581;-64
2023/08/29 04:58:00;;;;;;;3.17;2.97;;;;;;;;;;5003947;28;20214;-64
2023/08/29 05:00:28;;;;;;;3.83;2.88;;;;;;;;;;5003833;28;20206;-64
2023/08/29 05:02:54;;;;;;;3.25;3.05;;;;;;;;;;5000081;28;20207;-64
2023/08/29 05:05:21;;;;;;;3.40;3.20;;;;;;;;;;5000406;28;20225;-65
2023/08/29 05:07:47;;;;;;;3.08;2.88;;;;;;;;;;5002262;28;20207;-64
2023/08/29 05:10:14;;;;;;;4.50;3.45;;;;;;;;;;5003395;28;20199;-64
2023/08/29 05:12:41;;;;;;;3.88;3.58;;;;;;;;;;5002080;28;20230;-64
2023/08/29 05:15:08;;;;;;;4.43;3.47;;;;;;;;;;5000360;28;20306;-64
2023/08/29 05:17:34;;;;;;;3.42;3.22;;;;;;;;;;5000461;28;20214;-64
2023/08/29 05:20:00;;;;;;;3.25;3.00;;;;;;;;;;5003620;28;20202;-65
2023/08/29 05:22:26;;;;;;;3.67;3.47;;;;;;;;;;5003321;28;20222;-65
2023/08/29 05:24:53;;;;;;;4.85;4.30;;;;;;;;;;5000529;28;20214;-65
2023/08/29 05:27:20;;;;;;;6.38;3.92;;;;;;;;;;5000028;28;20210;-65
2023/08/29 05:29:47;;;;;;;4.38;4.05;;;;;;;;;;5001777;28;20667;-64
2023/08/29 05:32:13;;;;;;;4.00;3.70;;;;;;;;;;5003060;28;20729;-64
2023/08/29 05:34:39;;;;;;;4.43;4.13;;;;;;;;;;5003341;28;20638;-64
2023/08/29 05:37:05;;;;;;;4.15;3.85;;;;;;;;;;5003859;28;20220;-64
2023/08/29 05:39:31;;;;;;;4.53;4.22;;;;;;;;;;5003238;28;20206;-64
2023/08/29 05:41:58;;;;;;;4.25;4.05;;;;;;;;;;5001012;28;20230;-64
2023/08/29 05:44:25;;;;;;;4.60;4.30;;;;;;;;;;5003942;28;20211;-64
2023/08/29 05:46:52;;;;;;;5.10;4.63;;;;;;;;;;5001281;28;20210;-63
2023/08/29 05:49:18;;;;;;;5.47;4.70;;;;;;;;;;5001583;28;20268;-63
2023/08/29 05:51:45;;;;;;;4.80;4.50;;;;;;;;;;4999828;28;20226;-65
2023/08/29 05:54:11;;;;;;;6.72;5.10;;;;;;;;;;4997801;28;20715;-63
2023/08/29 05:56:37;;;;;;;5.63;5.13;;;;;;;;;;4997559;28;20727;-63
2023/08/29 05:59:04;;;;;;;6.35;5.10;;;;;;;;;;4986316;28;20555;-63
2023/08/29 06:01:31;;;;;;;6.25;5.60;;;;;;;;;;4993552;28;20222;-63
2023/08/29 06:03:58;;;;;;;6.05;5.55;;;;;;;;;;4986262;28;20306;-61
2023/08/29 06:06:24;;;;;;;6.20;5.70;;;;;;;;;;4986350;28;20211;-63
2023/08/29 06:08:51;;;;;;;6.15;5.57;;;;;;;;;;4993240;28;20213;-62
2023/08/29 06:11:17;;;;;;;7.72;5.82;;;;;;;;;;4992171;28;20223;-63
2023/08/29 06:13:43;;;;;;;7.68;5.78;;;;;;;;;;4989346;28;20230;-62
2023/08/29 06:16:09;;;;;;;6.32;5.85;;;;;;;;;;4991624;28;20207;-62
2023/08/29 06:18:37;;;;;;;6.82;6.10;;;;;;;;;;4987757;28;20215;-63
2023/08/29 06:21:04;;;;;;;9.32;6.97;;;;;;;;;;4989839;28;20219;-62
2023/08/29 06:23:31;;;;;;;6.32;5.93;;;;;;;;;;4998512;28;20581;-62
2023/08/29 06:25:57;;;;;;;8.02;6.75;;;;;;;;;;4996142;28;20217;-62
2023/08/29 06:28:23;;;;;;;7.95;6.78;;;;;;;;;;4988928;28;20207;-63
2023/08/29 06:30:49;;;;;;;10.23;7.40;;;;;;;;;;4988721;28;20311;-62
2023/08/29 06:33:16;;;;;;;7.38;6.78;;;;;;;;;;4989282;28;20219;-64
2023/08/29 06:35:43;;;;;;;9.23;7.60;;;;;;;;;;4993859;28;20727;-63
2023/08/29 06:38:10;;;;;;;9.20;8.18;;;;;;;;;;4994311;28;20751;-62
2023/08/29 06:40:36;;;;;;;8.82;7.78;;;;;;;;;;4987328;28;20207;-62
2023/08/29 06:43:02;;;;;;;9.90;7.45;;;;;;;;;;4987619;28;20211;-63
2023/08/29 06:45:29;;;;;;;9.45;8.55;;;;;;;;;;4988011;28;20207;-64
2023/08/29 06:47:55;;;;;;;17.00;9.10;;;;;;;;;;4988305;28;20211;-63
2023/08/29 06:50:21;;;;;;;11.35;10.10;;;;;;;;;;4987667;28;20231;-62
2023/08/29 06:52:49;;;;;;;10.52;8.80;;;;;;;;;;4986998;28;20257;-62
2023/08/29 06:55:16;;;;;;;13.98;9.75;;;;;;;;;;5004058;23;21174;-63
2023/08/29 06:57:42;;;;;;;13.82;9.80;;;;;;;;;;4990869;28;20694;-63
2023/08/29 07:00:11;;;;;;;11.55;9.95;;;;;;;;;;4990762;28;20824;-63
2023/08/29 07:02:37;;;;;;;12.52;11.15;;;;;;;;;;4990449;28;20227;-63
2023/08/29 07:05:04;;;;;;;12.00;10.23;;;;;;;;;;4978361;28;20215;-63
2023/08/29 07:07:30;;;;;;;10.35;9.43;;;;;;;;;;4987872;28;20211;-63
2023/08/29 07:09:58;;;;;;;10.15;9.20;;;;;;;;;;4989251;28;20285;-63
2023/08/29 07:12:24;;;;;;;10.98;9.55;;;;;;;;;;4972942;28;20223;-64
2023/08/29 07:14:50;;;;;;;10.10;9.15;;;;;;;;;;4990780;28;20215;-64
2023/08/29 07:17:17;;;;;;;9.75;8.73;;;;;;;;;;4975829;28;20226;-64
2023/08/29 07:19:43;;;;;;;9.95;9.18;;;;;;;;;;4975813;28;20214;-64
2023/08/29 07:22:09;;;;;;;12.35;10.52;;;;;;;;;;4975182;28;20235;-64
2023/08/29 07:24:36;;;;;;;13.35;9.68;;;;;;;;;;4974337;28;20694;-64
2023/08/29 07:27:04;;;;;;;9.40;8.60;;;;;;;;;;4971244;28;20307;-64
2023/08/29 07:29:30;;;;;;;11.43;10.18;;;;;;;;;;4994114;28;20626;-64
2023/08/29 07:31:57;;;;;;;13.68;10.77;;;;;;;;;;4979893;28;20619;-64
2023/08/29 07:34:24;;;;;;;11.75;10.55;;;;;;;;;;4988011;28;20231;-64
2023/08/29 07:36:50;;;;;;;11.43;10.30;;;;;;;;;;4968500;28;20212;-64
2023/08/29 07:39:18;;;;;;;10.90;9.93;;;;;;;;;;4975188;28;20223;-64
2023/08/29 07:41:45;;;;;;;11.32;10.32;;;;;;;;;;4974947;28;20762;-64
2023/08/29 07:44:12;;;;;;;11.98;10.75;;;;;;;;;;4970660;28;20214;-64
2023/08/29 07:46:39;;;;;;;12.05;10.88;;;;;;;;;;4973540;28;20215;-64
2023/08/29 07:49:10;;;;;;;11.70;10.70;;;;;;;;;;4981198;28;20214;-64
2023/08/29 07:51:36;;;;;;;12.43;11.20;;;;;;;;;;4981286;28;20228;-64
2023/08/29 07:54:02;;;;;;;13.10;11.90;;;;;;;;;;4993367;28;20317;-64
2023/08/29 07:56:29;;;;;;;11.93;10.73;;;;;;;;;;4983928;28;20210;-64
2023/08/29 07:58:56;;;;;;;12.65;11.45;;;;;;;;;;4996357;28;20219;-64
2023/08/29 08:01:24;;;;;;;15.25;11.68;;;;;;;;;;4973813;28;20227;-64
2023/08/29 08:03:50;;;;;;;13.65;12.02;;;;;;;;;;4974348;28;20219;-64
2023/08/29 08:06:16;;;;;;;13.48;12.07;;;;;;;;;;4987362;28;20207;-64
2023/08/29 08:08:42;;;;;;;12.35;11.02;;;;;;;;;;4987333;28;20213;-64
2023/08/29 08:11:09;;;;;;;12.10;10.95;;;;;;;;;;4971028;28;20230;-64
2023/08/29 08:13:35;;;;;;;13.43;12.13;;;;;;;;;;4979804;28;20242;-64
2023/08/29 08:16:02;;;;;;;13.43;11.68;;;;;;;;;;4974593;28;20270;-64
2023/08/29 08:18:29;;;;;;;15.50;12.02;;;;;;;;;;4983122;28;20207;-64
2023/08/29 08:20:55;;;;;;;15.02;11.90;;;;;;;;;;4980781;28;20225;-64
2023/08/29 08:23:22;;;;;;;12.95;10.82;;;;;;;;;;4976224;28;20218;-64
2023/08/29 08:25:48;;;;;;;13.27;11.23;;;;;;;;;;4970219;28;20207;-64
2023/08/29 08:28:14;;;;;;;13.25;11.48;;;;;;;;;;4985078;28;20273;-64
2023/08/29 08:30:40;;;;;;;14.63;11.95;;;;;;;;;;4984661;28;20208;-64
2023/08/29 08:33:07;;;;;;;12.10;11.13;;;;;;;;;;4982406;28;20215;-64
2023/08/29 08:35:34;;;;;;;13.70;12.35;;;;;;;;;;4979803;28;20783;-64
2023/08/29 08:38:01;;;;;;;12.45;11.02;;;;;;;;;;4981317;28;20560;-64
2023/08/29 08:40:28;;;;;;;12.13;10.98;;;;;;;;;;4974924;28;20212;-64
2023/08/29 08:42:55;;;;;;;12.05;10.70;;;;;;;;;;4973110;28;20211;-64
2023/08/29 08:45:22;;;;;;;13.20;10.70;;;;;;;;;;4988922;28;20214;-64
2023/08/29 08:47:48;;;;;;;11.00;10.15;;;;;;;;;;4981836;28;20219;-64
2023/08/29 08:50:15;;;;;;;12.60;9.75;;;;;;;;;;4986827;28;20705;-64
2023/08/29 08:52:44;;;;;;;10.48;9.55;;;;;;;;;;4977549;28;20559;-64
2023/08/29 08:55:10;;;;;;;9.10;8.23;;;;;;;;;;4978929;28;20231;-64
2023/08/29 08:57:37;;;;;;;9.82;8.95;;;;;;;;;;4976339;28;20226;-64
2023/08/29 09:00:06;;;;;;;9.45;8.38;;;;;;;;;;4968713;28;20208;-64
2023/08/29 09:02:33;;;;;;;9.65;8.85;;;;;;;;;;4969556;28;20227;-64
2023/08/29 09:04:59;;;;;;;8.73;8.00;;;;;;;;;;4988669;28;20222;-63
2023/08/29 09:07:26;;;;;;;8.93;8.27;;;;;;;;;;4990219;28;20361;-63
2023/08/29 09:10:10;;;;;;;9.40;8.60;;;;;;;;;;4969816;28;20210;-63
2023/08/29 09:12:36;;;;;;;9.60;8.80;;;;;;;;;;4980642;28;20210;-63
2023/08/29 09:15:04;;;;;;;9.20;8.30;;;;;;;;;;4987940;28;20229;-64
2023/08/29 09:17:30;;;;;;;9.68;8.85;;;;;;;;;;4977708;28;20703;-63
2023/08/29 09:19:58;;;;;;;10.40;9.35;;;;;;;;;;4981526;28;20224;-63
2023/08/29 09:22:24;;;;;;;11.10;9.75;;;;;;;;;;4988954;28;20228;-63
2023/08/29 09:24:51;;;;;;;10.05;9.23;;;;;;;;;;4967550;28;20220;-63
2023/08/29 09:27:18;;;;;;;10.43;9.40;;;;;;;;;;4976920;28;20502;-64
2023/08/29 09:29:44;;;;;;;10.73;9.77;;;;;;;;;;4983982;28;20204;-64
2023/08/29 09:32:14;;;;;;;9.98;9.07;;;;;;;;;;4973714;28;20761;-64
2023/08/29 09:34:41;;;;;;;9.77;8.98;;;;;;;;;;4985529;28;20307;-64
2023/08/29 09:37:07;;;;;;;10.40;9.50;;;;;;;;;;4977492;28;20211;-64
2023/08/29 09:39:34;;;;;;;11.15;10.07;;;;;;;;;;4973565;28;20211;-64
2023/08/29 09:42:01;;;;;;;11.50;10.40;;;;;;;;;;4981326;28;20228;-64
2023/08/29 09:44:29;;;;;;;9.70;8.90;;;;;;;;;;4973917;28;20218;-64
2023/08/29 09:46:56;;;;;;;11.05;8.73;;;;;;;;;;4973456;28;20214;-64
2023/08/29 09:49:22;;;;;;;9.60;8.75;;;;;;;;;;4976357;28;20208;-64
2023/08/29 09:51:49;;;;;;;9.07;8.25;;;;;;;;;;4985886;28;20226;-64
2023/08/29 09:54:18;;;;;;;9.00;8.20;;;;;;;;;;4969506;28;20658;-64
2023/08/29 09:56:44;;;;;;;9.52;7.13;;;;;;;;;;4973049;28;20207;-64
2023/08/29 09:59:12;;;;;;;8.20;7.60;;;;;;;;;;4974340;28;20216;-64
2023/08/29 10:01:39;;;;;;;9.73;7.88;;;;;;;;;;4968378;28;20310;-64
2023/08/29 10:04:06;;;;;;;8.73;7.88;;;;;;;;;;4969205;28;20723;-64
2023/08/29 10:06:34;;;;;;;8.27;7.47;;;;;;;;;;4989096;28;20683;-64
2023/08/29 10:09:00;;;;;;;8.60;7.80;;;;;;;;;;4993801;28;20214;-64
2023/08/29 10:11:28;;;;;;;9.02;8.20;;;;;;;;;;4989384;28;20247;-64
2023/08/29 10:13:54;;;;;;;8.75;7.90;;;;;;;;;;4991765;28;20672;-64
2023/08/29 10:16:22;;;;;;;9.15;8.27;;;;;;;;;;4983375;28;20722;-64
2023/08/29 10:18:51;;;;;;;8.95;8.25;;;;;;;;;;4970391;28;20556;-64
2023/08/29 10:21:21;;;;;;;8.73;8.02;;;;;;;;;;4972781;28;20253;-64
2023/08/29 10:23:48;;;;;;;7.85;7.25;;;;;;;;;;4971106;28;20214;-65
2023/08/29 10:26:15;;;;;;;7.70;7.18;;;;;;;;;;4975204;28;20218;-64
2023/08/29 10:28:41;;;;;;;8.43;7.57;;;;;;;;;;4984539;28;20237;-64
2023/08/29 10:31:09;;;;;;;8.98;8.18;;;;;;;;;;4978914;28;20227;-64
2023/08/29 10:33:35;;;;;;;9.20;8.35;;;;;;;;;;4974753;28;20647;-64
2023/08/29 10:36:06;;;;;;;9.15;8.32;;;;;;;;;;4978530;28;20219;-63
2023/08/29 10:38:38;;;;;;;9.68;8.82;;;;;;;;;;4988022;28;20207;-63
2023/08/29 10:41:06;;;;;;;10.02;9.02;;;;;;;;;;4991091;28;20231;-64
2023/08/29 10:43:33;;;;;;;9.18;8.38;;;;;;;;;;4986857;28;20207;-64
2023/08/29 10:46:13;;;;;;;9.02;8.23;;;;;;;;;;4990212;28;20207;-64
2023/08/29 10:48:49;;;;;;;8.00;7.32;;;;;;;;;;4989211;28;20292;-64
2023/08/29 10:51:17;;;;;;;8.95;8.35;;;;;;;;;;4992476;28;20237;-64
2023/08/29 10:53:48;;;;;;;7.72;7.22;;;;;;;;;;4987873;28;20207;-64
2023/08/29 10:56:17;;;;;;;7.85;7.30;;;;;;;;;;4989814;28;20235;-64
2023/08/29 10:58:44;;;;;;;7.78;7.28;;;;;;;;;;4991027;28;20211;-64
2023/08/29 11:01:28;;;;;;;8.23;7.63;;;;;;;;;;4984890;28;20239;-64
2023/08/29 11:03:55;;;;;;;8.50;7.80;;;;;;;;;;4990242;28;20286;-65
2023/08/29 11:06:23;;;;;;;9.68;8.10;;;;;;;;;;4989974;28;20222;-65
2023/08/29 11:08:49;;;;;;;8.15;7.43;;;;;;;;;;4989717;28;20540;-65
2023/08/29 11:11:17;;;;;;;7.63;7.10;;;;;;;;;;4989789;28;20227;-65
2023/08/29 11:13:56;;;;;;;8.25;7.55;;;;;;;;;;4990932;28;20660;-65
2023/08/29 11:16:23;;;;;;;7.60;7.10;;;;;;;;;;4990630;28;20237;-67
2023/08/29 11:18:58;;;;;;;7.85;7.13;;;;;;;;;;4989848;28;20318;-68
2023/08/29 11:21:26;;;;;;;7.25;6.65;;;;;;;;;;4980002;28;20600;-65
2023/08/29 11:23:53;;;;;;;7.57;7.07;;;;;;;;;;4985267;28;20209;-66
2023/08/29 11:26:20;;;;;;;6.93;6.53;;;;;;;;;;4988853;28;20687;-65
2023/08/29 11:28:47;;;;;;;7.82;7.22;;;;;;;;;;4984493;28;20203;-66
2023/08/29 11:31:14;;;;;;;9.60;8.80;;;;;;;;;;4982658;28;20226;-65
2023/08/29 11:33:40;;;;;;;9.93;9.10;;;;;;;;;;4986258;28;20250;-65
2023/08/29 11:36:07;;;;;;;9.65;8.38;;;;;;;;;;4985106;28;20234;-66
2023/08/29 11:38:34;;;;;;;8.82;8.23;;;;;;;;;;4986857;28;20207;-65
2023/08/29 11:41:04;;;;;;;9.35;8.55;;;;;;;;;;4990147;28;20742;-66
2023/08/29 11:43:31;;;;;;;9.52;8.82;;;;;;;;;;4984420;28;20253;-65
2023/08/29 11:45:58;;;;;;;9.07;8.25;;;;;;;;;;4990463;28;20203;-65
2023/08/29 11:48:24;;;;;;;9.48;8.30;;;;;;;;;;4989480;28;20265;-66
2023/08/29 11:50:55;;;;;;;9.10;8.40;;;;;;;;;;4989776;28;20707;-66
2023/08/29 11:53:21;;;;;;;8.93;8.07;;;;;;;;;;4984111;28;20238;-65
2023/08/29 11:55:49;;;;;;;7.57;7.00;;;;;;;;;;4989663;28;20226;-65
2023/08/29 11:58:16;;;;;;;9.45;8.40;;;;;;;;;;4988973;28;20230;-66
2023/08/29 12:00:42;;;;;;;9.00;8.30;;;;;;;;;;4985903;28;20211;-65
2023/08/29 12:03:08;;;;;;;8.07;7.43;;;;;;;;;;4983449;28;20211;-64
2023/08/29 12:05:34;;;;;;;8.10;6.82;;;;;;;;;;4987777;28;20210;-65
2023/08/29 12:08:01;;;;;;;8.35;7.60;;;;;;;;;;4989330;28;20587;-66
2023/08/29 12:10:29;;;;;;;7.13;6.47;;;;;;;;;;4988753;28;20233;-65
2023/08/29 12:12:57;;;;;;;7.82;7.22;;;;;;;;;;4987737;28;20219;-64
2023/08/29 12:15:34;;;;;;;9.43;7.53;;;;;;;;;;4997488;28;20230;-64
2023/08/29 12:18:00;;;;;;;7.90;7.20;;;;;;;;;;4990722;28;20354;-64
2023/08/29 12:20:27;;;;;;;5.53;5.22;;;;;;;;;;4979719;28;20266;-64
2023/08/29 12:22:54;;;;;;;3.85;3.63;;;;;;;;;;4992273;28;20203;-64
2023/08/29 12:25:20;;;;;;;10.30;3.15;;;;;;;;;;4980801;28;20219;-64
2023/08/29 12:27:46;;;;;;;3.60;3.10;;;;;;;;;;4984679;28;20573;-64
2023/08/29 12:30:15;;;;;;;2.92;2.83;;;;;;;;;;4988319;28;20215;-64
2023/08/29 12:32:42;;;;;;;6.72;3.58;;;;;;;;;;4985205;28;20227;-64
2023/08/29 12:35:10;;;;;;;4.75;3.65;;;;;;;;;;4981994;28;20321;-64
2023/08/29 12:37:36;;;;;;;4.18;3.97;;;;;;;;;;4974114;28;20274;-64
2023/08/29 12:40:04;;;;;;;4.00;3.75;;;;;;;;;;4981348;28;20212;-64
2023/08/29 12:42:30;;;;;;;4.20;4.00;;;;;;;;;;4988508;28;20325;-64
2023/08/29 12:44:57;;;;;;;4.28;4.07;;;;;;;;;;4976155;28;20600;-64
2023/08/29 12:47:24;;;;;;;4.60;4.30;;;;;;;;;;4972937;28;20218;-64
2023/08/29 12:49:51;;;;;;;4.93;4.43;;;;;;;;;;4988207;28;20211;-64
2023/08/29 12:52:18;;;;;;;4.40;4.15;;;;;;;;;;4972820;28;20235;-64
2023/08/29 12:54:44;;;;;;;6.05;5.30;;;;;;;;;;4980412;28;20214;-64
2023/08/29 12:57:10;;;;;;;6.18;5.68;;;;;;;;;;5005571;23;20238;-63
2023/08/29 12:59:37;;;;;;;8.05;7.30;;;;;;;;;;5004248;28;20214;-63
2023/08/29 13:02:04;;;;;;;7.90;7.40;;;;;;;;;;4997180;28;20582;-63
2023/08/29 13:04:32;;;;;;;7.70;7.07;;;;;;;;;;4989674;28;20211;-63
2023/08/29 13:06:59;;;;;;;7.18;6.68;;;;;;;;;;4988253;28;20509;-62
2023/08/29 13:09:26;;;;;;;8.10;7.47;;;;;;;;;;4989647;28;20301;-62
2023/08/29 13:11:52;;;;;;;6.80;6.30;;;;;;;;;;4991460;28;20270;-63
2023/08/29 13:14:18;;;;;;;6.38;5.78;;;;;;;;;;4993611;28;20211;-63
2023/08/29 13:16:44;;;;;;;5.80;5.50;;;;;;;;;;4984245;28;20223;-63
2023/08/29 13:19:11;;;;;;;6.32;5.90;;;;;;;;;;4992339;28;20240;-64
2023/08/29 13:21:38;;;;;;;3.78;3.67;;;;;;;;;;4988837;28;20358;-63
2023/08/29 13:24:05;;;;;;;3.70;3.40;;;;;;;;;;4992274;28;20207;-63
2023/08/29 13:26:31;;;;;;;3.50;3.33;;;;;;;;;;4998071;28;20222;-62
2023/08/29 13:28:59;;;;;;;2.70;2.60;;;;;;;;;;4990255;28;20766;-63
2023/08/29 13:31:26;;;;;;;3.55;2.72;;;;;;;;;;4996949;28;20230;-64
2023/08/29 13:33:52;;;;;;;2.70;2.60;;;;;;;;;;4992910;28;20211;-64
2023/08/29 13:36:19;;;;;;;3.90;2.88;;;;;;;;;;4996513;28;20296;-63
2023/08/29 13:38:47;;;;;;;2.90;2.70;;;;;;;;;;4991137;28;20221;-64
2023/08/29 13:41:13;;;;;;;3.20;2.90;;;;;;;;;;4994423;28;20309;-61
2023/08/29 13:43:39;;;;;;;2.80;2.60;;;;;;;;;;4998151;28;20242;-61
2023/08/29 13:46:06;;;;;;;3.75;3.08;;;;;;;;;;4998823;28;20211;-62
2023/08/29 13:48:32;;;;;;;2.95;2.90;;;;;;;;;;4992786;28;20215;-64
2023/08/29 13:50:58;;;;;;;4.03;3.83;;;;;;;;;;4989250;28;20719;-63
2023/08/29 13:53:25;;;;;;;4.03;3.63;;;;;;;;;;4994885;28;20243;-63
2023/08/29 13:55:52;;;;;;;5.13;3.90;;;;;;;;;;4997118;28;20226;-63
2023/08/29 13:58:19;;;;;;;4.00;3.70;;;;;;;;;;4988088;28;20615;-63
2023/08/29 14:00:47;;;;;;;3.60;3.38;;;;;;;;;;4991402;28;20203;-63
2023/08/29 14:03:13;;;;;;;3.15;2.95;;;;;;;;;;4990985;28;20314;-65
2023/08/29 14:05:39;;;;;;;6.43;3.20;;;;;;;;;;4999318;28;20241;-64
2023/08/29 14:08:06;;;;;;;3.13;2.78;;;;;;;;;;4997982;28;20532;-64
2023/08/29 14:10:32;;;;;;;3.10;2.90;;;;;;;;;;4993665;28;20695;-64
2023/08/29 14:13:00;;;;;;;3.28;2.97;;;;;;;;;;4992550;28;20210;-64
2023/08/29 14:15:27;;;;;;;6.22;3.00;;;;;;;;;;4997870;28;20686;-65
2023/08/29 14:17:53;;;;;;;2.92;2.80;;;;;;;;;;4998744;28;20226;-64
2023/08/29 14:20:20;;;;;;;2.95;2.45;;;;;;;;;;5001151;28;20215;-63
2023/08/29 14:22:46;;;;;;;4.35;3.90;;;;;;;;;;5000203;28;20238;-63
2023/08/29 14:25:12;;;;;;;5.40;4.95;;;;;;;;;;5000652;28;20206;-64
2023/08/29 14:27:38;;;;;;;5.28;4.97;;;;;;;;;;4996035;28;20615;-64
2023/08/29 14:30:07;;;;;;;5.65;5.07;;;;;;;;;;4993708;28;20585;-64
2023/08/29 14:32:33;;;;;;;5.50;4.97;;;;;;;;;;4991138;28;20231;-64
2023/08/29 14:34:59;;;;;;;5.60;5.20;;;;;;;;;;4998894;28;20207;-64
2023/08/29 14:37:26;;;;;;;6.25;5.72;;;;;;;;;;4993813;28;20223;-64